Polis 139 9970 — SFC7681 — position and weather

sailwx.info

Track history (hours):
 
Tides and Currents Weather Stations Pressure Air Temp Water Temp Dewpoint Dewpoint Depression Visibility Wind Speed Wind Dir Waves Ship Positions

Polis 139 9970

Last reported at 2016-Nov-22 20:33 UTC. Time now 2016-Dec-06 10:08 UTC.
Position N 59°20' E 018°11'.
Warning: this ship's position is 13 days out of date.

Length 16 m.

Type: Law enforcement. MMSI: 265565250.

Date/timePositionNaut miles runAvg speedWind from/ knotsBaromVisibWave heightAir tempDewpointWater temp
2016-Nov-22 20:33N 59°20' E 018°11'1 1.1
2016-Nov-22 19:33N 59°19' E 018°10'0 0.0
2016-Nov-22 17:33N 59°19' E 018°10'0 0.0
2016-Nov-22 16:33N 59°19' E 018°10'0 0.0
2016-Nov-22 15:33N 59°19' E 018°10'0 0.0
2016-Nov-22 14:33N 59°19' E 018°10'0 0.0
2016-Nov-21 14:33N 59°19' E 018°10'0 0.0
2016-Nov-21 13:33N 59°19' E 018°10'0 0.0
2016-Nov-21 12:34N 59°19' E 018°10'0 0.0
2016-Nov-21 08:33N 59°19' E 018°10'0 0.0
2016-Nov-21 07:33N 59°19' E 018°10'0 0.0
2016-Nov-21 05:34N 59°19' E 018°10'0 0.0
2016-Nov-21 04:33N 59°19' E 018°10'0 0.0
2016-Nov-21 02:33N 59°19' E 018°10'0 0.0
2016-Nov-21 00:34N 59°19' E 018°10'0 0.0
2016-Nov-20 22:34N 59°19' E 018°10'0 0.0
2016-Nov-20 21:33N 59°19' E 018°10'0 0.0
2016-Nov-20 17:33N 59°19' E 018°10'0 0.0
2016-Nov-20 16:33N 59°19' E 018°10'1 0.4
2016-Nov-20 14:33N 59°20' E 018°11'1 0.2
2016-Nov-20 09:33N 59°19' E 018°10'0 0.0
2016-Nov-20 08:33N 59°19' E 018°10'0 0.0
2016-Nov-20 07:33N 59°19' E 018°10'0 0.0
2016-Nov-20 06:33N 59°19' E 018°10'0 0.0
2016-Nov-20 05:33N 59°19' E 018°10'0 0.0
2016-Nov-20 04:33N 59°19' E 018°10'0 0.0
2016-Nov-20 03:33N 59°19' E 018°10'0 0.0
2016-Nov-20 01:33N 59°19' E 018°10'0 0.0
2016-Nov-19 23:33N 59°19' E 018°10'0 0.0
2016-Nov-19 22:33N 59°19' E 018°10'0 0.0
2016-Nov-19 20:33N 59°19' E 018°10'0 0.0
2016-Nov-19 19:33N 59°19' E 018°10'0 0.0
2016-Nov-19 17:33N 59°19' E 018°10'0 0.0
2016-Nov-19 16:33N 59°19' E 018°10'0 0.0
2016-Nov-19 14:33N 59°19' E 018°10'0 0.0
2016-Nov-19 11:33N 59°19' E 018°10'0 0.0
2016-Nov-19 09:33N 59°19' E 018°10'0 0.0
2016-Nov-19 07:33N 59°19' E 018°10'0 0.0
2016-Nov-19 05:33N 59°19' E 018°10'0 0.0
2016-Nov-19 04:33N 59°19' E 018°10'0 0.0
2016-Nov-19 03:33N 59°19' E 018°10'0 0.0
2016-Nov-19 02:33N 59°19' E 018°10'0 0.0
2016-Nov-19 01:33N 59°19' E 018°10'0 0.0
2016-Nov-19 00:33N 59°19' E 018°10'0 0.0
2016-Nov-18 23:33N 59°19' E 018°10'0 0.0
2016-Nov-18 20:33N 59°19' E 018°10'0 0.0
2016-Nov-18 18:33N 59°19' E 018°10'0 0.0
2016-Nov-18 17:33N 59°19' E 018°10'0 0.0
2016-Nov-18 14:33N 59°19' E 018°10'5 2.6
2016-Nov-18 12:33N 59°23' E 018°03'0 0.0
2016-Nov-18 11:33N 59°23' E 018°03'0 0.0
2016-Nov-18 09:33N 59°23' E 018°03'0 0.0
2016-Nov-18 07:33N 59°23' E 018°03'5 2.6
2016-Nov-18 05:33N 59°19' E 018°10'0 0.0
2016-Nov-18 04:33N 59°19' E 018°10'0 0.0
2016-Nov-18 01:33N 59°19' E 018°10'0 0.0
2016-Nov-18 00:33N 59°19' E 018°10'0 0.0
2016-Nov-17 23:33N 59°19' E 018°10'0 0.0
2016-Nov-17 22:33N 59°19' E 018°10'0 0.0
2016-Nov-17 21:33N 59°19' E 018°10'0 0.0
2016-Nov-17 19:33N 59°19' E 018°10'0 0.0
2016-Nov-17 18:33N 59°19' E 018°10'5 1.3
2016-Nov-17 14:34N 59°23' E 018°03'0 0.0
2016-Nov-17 13:34N 59°23' E 018°03'0 0.0
2016-Nov-17 12:33N 59°23' E 018°03'0 0.0
2016-Nov-17 11:33N 59°23' E 018°03'0 0.0
2016-Nov-17 08:34N 59°23' E 018°03'5 2.6
2016-Nov-17 06:33N 59°19' E 018°10'0 0.0
2016-Nov-17 02:33N 59°19' E 018°10'0 0.0
2016-Nov-16 23:33N 59°19' E 018°10'0 0.0
2016-Nov-16 22:33N 59°19' E 018°10'3 0.5
2016-Nov-16 17:12N 59°21' E 018°14'3 4.3
2016-Nov-16 16:33N 59°19' E 018°10'0 0.0
2016-Nov-16 12:22N 59°19' E 018°10'0 0.0
2016-Nov-16 09:34N 59°19' E 018°10'0 0.0
2016-Nov-16 08:34N 59°19' E 018°10'0 0.0
2016-Nov-16 07:33N 59°19' E 018°10'0 0.0
2016-Nov-16 06:34N 59°19' E 018°10'0 0.0
2016-Nov-16 04:33N 59°19' E 018°10'0 0.0
2016-Nov-16 03:33N 59°19' E 018°10'0 0.0
2016-Nov-16 02:34N 59°19' E 018°10'0 0.0
2016-Nov-16 01:34N 59°19' E 018°10'0 0.0
2016-Nov-15 21:34N 59°19' E 018°10'0 0.0
2016-Nov-15 19:34N 59°19' E 018°10'0 0.0
2016-Nov-15 18:34N 59°19' E 018°10'0 0.0
2016-Nov-15 13:33N 59°19' E 018°10'0 0.0
2016-Nov-15 12:34N 59°19' E 018°10'0 0.0
2016-Nov-15 11:34N 59°19' E 018°10'0 0.0
2016-Nov-15 10:33N 59°19' E 018°10'0 0.0
2016-Nov-15 07:34N 59°19' E 018°10'0 0.0
2016-Nov-15 06:33N 59°19' E 018°10'0 0.0
2016-Nov-15 05:53N 59°19' E 018°10'0 0.0
2016-Nov-15 03:33N 59°19' E 018°10'0 0.0
2016-Nov-15 02:34N 59°19' E 018°10'0 0.0
2016-Nov-15 00:33N 59°19' E 018°10'0 0.0
2016-Nov-14 23:43N 59°19' E 018°10'0 0.0
2016-Nov-14 19:34N 59°19' E 018°10'0 0.0
2016-Nov-14 17:33N 59°19' E 018°10'0 0.0
2016-Nov-14 16:33N 59°19' E 018°10'0 0.0
2016-Nov-14 15:33N 59°19' E 018°10'0 0.0
2016-Nov-14 08:33N 59°19' E 018°10'0 0.0
2016-Nov-14 05:34N 59°19' E 018°10'0 0.0
2016-Nov-14 00:33N 59°19' E 018°10'0 0.0
2016-Nov-13 23:33N 59°19' E 018°10'0 0.0
2016-Nov-13 22:33N 59°19' E 018°10'0 0.0
2016-Nov-13 19:33N 59°19' E 018°10'0 0.0
2016-Nov-13 18:34N 59°19' E 018°10'0 0.0
2016-Nov-13 17:34N 59°19' E 018°10'0 0.0
2016-Nov-13 15:33N 59°19' E 018°10'0 0.0
2016-Nov-13 13:34N 59°19' E 018°10'0 0.0
2016-Nov-13 10:33N 59°19' E 018°10'0 0.0
2016-Nov-13 08:33N 59°19' E 018°10'0 0.0
2016-Nov-13 05:33N 59°19' E 018°10'0 0.0
2016-Nov-13 03:33N 59°19' E 018°10'0 0.0
2016-Nov-12 23:33N 59°19' E 018°10'0 0.0
2016-Nov-12 21:33N 59°19' E 018°10'  
Track history (hours):
 
Tides and Currents Weather Stations Pressure Air Temp Water Temp Dewpoint Dewpoint Depression Visibility Wind Speed Wind Dir Waves Ship Positions

Polis 139 9970

Last reported at 2016-Nov-22 20:33 UTC. Time now 2016-Dec-06 10:08 UTC.
Position N 59°20' E 018°11'.
Warning: this ship's position is 13 days out of date.

Length 16 m.

Type: Law enforcement. MMSI: 265565250.

Date/timePositionNaut miles runAvg speedWind from/ knotsBaromVisibWave heightAir tempDewpointWater temp
2016-Nov-22 20:33N 59°20' E 018°11'1 1.1
2016-Nov-22 19:33N 59°19' E 018°10'0 0.0
2016-Nov-22 17:33N 59°19' E 018°10'0 0.0
2016-Nov-22 16:33N 59°19' E 018°10'0 0.0
2016-Nov-22 15:33N 59°19' E 018°10'0 0.0
2016-Nov-22 14:33N 59°19' E 018°10'0 0.0
2016-Nov-21 14:33N 59°19' E 018°10'0 0.0
2016-Nov-21 13:33N 59°19' E 018°10'0 0.0
2016-Nov-21 12:34N 59°19' E 018°10'0 0.0
2016-Nov-21 08:33N 59°19' E 018°10'0 0.0
2016-Nov-21 07:33N 59°19' E 018°10'0 0.0
2016-Nov-21 05:34N 59°19' E 018°10'0 0.0
2016-Nov-21 04:33N 59°19' E 018°10'0 0.0
2016-Nov-21 02:33N 59°19' E 018°10'0 0.0
2016-Nov-21 00:34N 59°19' E 018°10'0 0.0
2016-Nov-20 22:34N 59°19' E 018°10'0 0.0
2016-Nov-20 21:33N 59°19' E 018°10'0 0.0
2016-Nov-20 17:33N 59°19' E 018°10'0 0.0
2016-Nov-20 16:33N 59°19' E 018°10'1 0.4
2016-Nov-20 14:33N 59°20' E 018°11'1 0.2
2016-Nov-20 09:33N 59°19' E 018°10'0 0.0
2016-Nov-20 08:33N 59°19' E 018°10'0 0.0
2016-Nov-20 07:33N 59°19' E 018°10'0 0.0
2016-Nov-20 06:33N 59°19' E 018°10'0 0.0
2016-Nov-20 05:33N 59°19' E 018°10'0 0.0
2016-Nov-20 04:33N 59°19' E 018°10'0 0.0
2016-Nov-20 03:33N 59°19' E 018°10'0 0.0
2016-Nov-20 01:33N 59°19' E 018°10'0 0.0
2016-Nov-19 23:33N 59°19' E 018°10'0 0.0
2016-Nov-19 22:33N 59°19' E 018°10'0 0.0
2016-Nov-19 20:33N 59°19' E 018°10'0 0.0
2016-Nov-19 19:33N 59°19' E 018°10'0 0.0
2016-Nov-19 17:33N 59°19' E 018°10'0 0.0
2016-Nov-19 16:33N 59°19' E 018°10'0 0.0
2016-Nov-19 14:33N 59°19' E 018°10'0 0.0
2016-Nov-19 11:33N 59°19' E 018°10'0 0.0
2016-Nov-19 09:33N 59°19' E 018°10'0 0.0
2016-Nov-19 07:33N 59°19' E 018°10'0 0.0
2016-Nov-19 05:33N 59°19' E 018°10'0 0.0
2016-Nov-19 04:33N 59°19' E 018°10'0 0.0
2016-Nov-19 03:33N 59°19' E 018°10'0 0.0
2016-Nov-19 02:33N 59°19' E 018°10'0 0.0
2016-Nov-19 01:33N 59°19' E 018°10'0 0.0
2016-Nov-19 00:33N 59°19' E 018°10'0 0.0
2016-Nov-18 23:33N 59°19' E 018°10'0 0.0
2016-Nov-18 20:33N 59°19' E 018°10'0 0.0
2016-Nov-18 18:33N 59°19' E 018°10'0 0.0
2016-Nov-18 17:33N 59°19' E 018°10'0 0.0
2016-Nov-18 14:33N 59°19' E 018°10'5 2.6
2016-Nov-18 12:33N 59°23' E 018°03'0 0.0
2016-Nov-18 11:33N 59°23' E 018°03'0 0.0
2016-Nov-18 09:33N 59°23' E 018°03'0 0.0
2016-Nov-18 07:33N 59°23' E 018°03'5 2.6
2016-Nov-18 05:33N 59°19' E 018°10'0 0.0
2016-Nov-18 04:33N 59°19' E 018°10'0 0.0
2016-Nov-18 01:33N 59°19' E 018°10'0 0.0
2016-Nov-18 00:33N 59°19' E 018°10'0 0.0
2016-Nov-17 23:33N 59°19' E 018°10'0 0.0
2016-Nov-17 22:33N 59°19' E 018°10'0 0.0
2016-Nov-17 21:33N 59°19' E 018°10'0 0.0
2016-Nov-17 19:33N 59°19' E 018°10'0 0.0
2016-Nov-17 18:33N 59°19' E 018°10'5 1.3
2016-Nov-17 14:34N 59°23' E 018°03'0 0.0
2016-Nov-17 13:34N 59°23' E 018°03'0 0.0
2016-Nov-17 12:33N 59°23' E 018°03'0 0.0
2016-Nov-17 11:33N 59°23' E 018°03'0 0.0
2016-Nov-17 08:34N 59°23' E 018°03'5 2.6
2016-Nov-17 06:33N 59°19' E 018°10'0 0.0
2016-Nov-17 02:33N 59°19' E 018°10'0 0.0
2016-Nov-16 23:33N 59°19' E 018°10'0 0.0
2016-Nov-16 22:33N 59°19' E 018°10'3 0.5
2016-Nov-16 17:12N 59°21' E 018°14'3 4.3
2016-Nov-16 16:33N 59°19' E 018°10'0 0.0
2016-Nov-16 12:22N 59°19' E 018°10'0 0.0
2016-Nov-16 09:34N 59°19' E 018°10'0 0.0
2016-Nov-16 08:34N 59°19' E 018°10'0 0.0
2016-Nov-16 07:33N 59°19' E 018°10'0 0.0
2016-Nov-16 06:34N 59°19' E 018°10'0 0.0
2016-Nov-16 04:33N 59°19' E 018°10'0 0.0
2016-Nov-16 03:33N 59°19' E 018°10'0 0.0
2016-Nov-16 02:34N 59°19' E 018°10'0 0.0
2016-Nov-16 01:34N 59°19' E 018°10'0 0.0
2016-Nov-15 21:34N 59°19' E 018°10'0 0.0
2016-Nov-15 19:34N 59°19' E 018°10'0 0.0
2016-Nov-15 18:34N 59°19' E 018°10'0 0.0
2016-Nov-15 13:33N 59°19' E 018°10'0 0.0
2016-Nov-15 12:34N 59°19' E 018°10'0 0.0
2016-Nov-15 11:34N 59°19' E 018°10'0 0.0
2016-Nov-15 10:33N 59°19' E 018°10'0 0.0
2016-Nov-15 07:34N 59°19' E 018°10'0 0.0
2016-Nov-15 06:33N 59°19' E 018°10'0 0.0
2016-Nov-15 05:53N 59°19' E 018°10'0 0.0
2016-Nov-15 03:33N 59°19' E 018°10'0 0.0
2016-Nov-15 02:34N 59°19' E 018°10'0 0.0
2016-Nov-15 00:33N 59°19' E 018°10'0 0.0
2016-Nov-14 23:43N 59°19' E 018°10'0 0.0
2016-Nov-14 19:34N 59°19' E 018°10'0 0.0
2016-Nov-14 17:33N 59°19' E 018°10'0 0.0
2016-Nov-14 16:33N 59°19' E 018°10'0 0.0
2016-Nov-14 15:33N 59°19' E 018°10'0 0.0
2016-Nov-14 08:33N 59°19' E 018°10'0 0.0
2016-Nov-14 05:34N 59°19' E 018°10'0 0.0
2016-Nov-14 00:33N 59°19' E 018°10'0 0.0
2016-Nov-13 23:33N 59°19' E 018°10'0 0.0
2016-Nov-13 22:33N 59°19' E 018°10'0 0.0
2016-Nov-13 19:33N 59°19' E 018°10'0 0.0
2016-Nov-13 18:34N 59°19' E 018°10'0 0.0
2016-Nov-13 17:34N 59°19' E 018°10'0 0.0
2016-Nov-13 15:33N 59°19' E 018°10'0 0.0
2016-Nov-13 13:34N 59°19' E 018°10'0 0.0
2016-Nov-13 10:33N 59°19' E 018°10'0 0.0
2016-Nov-13 08:33N 59°19' E 018°10'0 0.0
2016-Nov-13 05:33N 59°19' E 018°10'0 0.0
2016-Nov-13 03:33N 59°19' E 018°10'0 0.0
2016-Nov-12 23:33N 59°19' E 018°10'0 0.0
2016-Nov-12 21:33N 59°19' E 018°10'  

Dump ship's entire track history